Time;durP1;ratioP1;P1;durP2;ratioP2;P2;SDS_P1;SDS_P2;PMS_P1;PMS_P2;Temp;Humidity;BMP_temperature;BMP_pressure;BME280_temperature;BME280_humidity;BME280_pressure;Samples;Min_cycle;Max_cycle;Signal;HPM_P1;HPM_P2
2023/03/23 00:01:15;;;;;;;;;;;;;;;-142.75;100.00;75938.47;5011993;28;20360;-69
2023/03/23 00:03:40;;;;;;;;;;;;;;;-142.75;100.00;75946.34;5011832;28;19968;-69
2023/03/23 00:06:06;;;;;;;;;;;;;;;-142.75;100.00;75960.13;5010889;28;19917;-69
2023/03/23 00:08:33;;;;;;;;;;;;;;;-142.75;100.00;75946.34;5012100;28;19913;-70
2023/03/23 00:11:00;;;;;;;;;;;;;;;-142.75;100.00;75932.56;5010769;28;19920;-70
2023/03/23 00:13:26;;;;;;;;;;;;;;;-142.75;100.00;75952.25;5010714;28;19944;-70
2023/03/23 00:15:52;;;;;;;;;;;;;;;-142.75;100.00;75942.41;5010746;28;19961;-70
2023/03/23 00:18:20;;;;;;;;;;;;;;;-142.75;100.00;75946.34;5010709;28;19920;-70
2023/03/23 00:20:48;;;;;;;;;;;;;;;-142.75;100.00;75940.44;5010573;28;19920;-70
2023/03/23 00:23:18;;;;;;;;;;;;;;;-142.75;100.00;75940.44;5011970;28;20297;-70
2023/03/23 00:25:47;;;;;;;;;;;;;;;-142.75;100.00;75942.41;5010693;28;19914;-70
2023/03/23 00:28:14;;;;;;;;;;;;;;;-142.75;100.00;75944.38;5011916;28;19917;-67
2023/03/23 00:30:39;;;;;;;;;;;;;;;-142.75;100.00;75944.38;5011820;28;20397;-69
2023/03/23 00:33:04;;;;;;;;;;;;;;;-142.75;100.00;75944.38;5013955;28;19976;-70
2023/03/23 00:35:30;;;;;;;;;;;;;;;-142.75;100.00;75942.41;5015580;28;19956;-68
2023/03/23 00:37:56;;;;;;;;;;;;;;;-142.75;100.00;75934.53;5015555;28;20003;-70
2023/03/23 00:40:21;;;;;;;;;;;;;;;-142.75;100.00;75936.50;5014237;28;19920;-70
2023/03/23 00:42:48;;;;;;;;;;;;;;;-142.75;100.00;75950.28;5014066;28;19979;-69
2023/03/23 00:45:14;;;;;;;;;;;;;;;-142.75;100.00;75934.53;5015283;28;19933;-70
2023/03/23 00:47:41;;;;;;;;;;;;;;;-142.75;100.00;75932.56;5015331;28;20000;-69
2023/03/23 00:50:07;;;;;;;;;;;;;;;-142.75;100.00;75924.69;5015397;28;20700;-69
2023/03/23 00:52:32;;;;;;;;;;;;;;;-142.75;100.00;75924.69;5015231;28;19945;-70
2023/03/23 00:54:58;;;;;;;;;;;;;;;-142.75;100.00;75936.50;5015131;28;19960;-70
2023/03/23 00:57:24;;;;;;;;;;;;;;;-142.75;100.00;75932.56;5015225;28;19952;-69
2023/03/23 00:59:50;;;;;;;;;;;;;;;-142.75;100.00;75936.50;5013852;28;19933;-70
2023/03/23 01:02:16;;;;;;;;;;;;;;;-142.75;100.00;75940.44;5014959;28;19917;-69
2023/03/23 01:04:44;;;;;;;;;;;;;;;-142.75;100.00;75938.47;5014746;28;19913;-69
2023/03/23 01:07:12;;;;;;;;;;;;;;;-142.75;100.00;75950.28;5013710;28;19913;-69
2023/03/23 01:09:39;;;;;;;;;;;;;;;-142.75;100.00;75930.59;5014956;28;19913;-70
2023/03/23 01:12:05;;;;;;;;;;;;;;;-142.75;100.00;75924.69;5013564;28;20012;-70
2023/03/23 01:14:30;;;;;;;;;;;;;;;-142.75;100.00;75928.63;5015098;28;20056;-69
2023/03/23 01:16:56;;;;;;;;;;;;;;;-142.75;100.00;75920.75;5014896;28;19914;-70
2023/03/23 01:19:21;;;;;;;;;;;;;;;-142.75;100.00;75914.84;5014704;28;19914;-70
2023/03/23 01:21:47;;;;;;;;;;;;;;;-142.75;100.00;75920.75;5013386;28;19917;-68
2023/03/23 01:24:12;;;;;;;;;;;;;;;-142.75;100.00;75924.69;5014598;28;19913;-69
2023/03/23 01:26:37;;;;;;;;;;;;;;;-142.75;100.00;75914.84;5014629;28;20011;-68
2023/03/23 01:29:02;;;;;;;;;;;;;;;-142.75;100.00;75924.69;5014581;28;19913;-69
2023/03/23 01:31:28;;;;;;;;;;;;;;;-142.75;100.00;75926.66;5014525;28;19920;-69
2023/03/23 01:33:54;;;;;;;;;;;;;;;-142.75;100.00;75918.78;5014423;28;19914;-70
2023/03/23 01:36:21;;;;;;;;;;;;;;;-142.75;100.00;75926.66;5014536;28;20000;-67
2023/03/23 01:38:47;;;;;;;;;;;;;;;-142.75;100.00;75924.69;5014363;28;20035;-68
2023/03/23 01:41:14;;;;;;;;;;;;;;;-142.75;100.00;75924.69;5012907;28;19960;-69
2023/03/23 01:43:54;;;;;;;;;;;;;;;-142.75;100.00;75924.69;5012433;28;20008;-70
2023/03/23 01:46:22;;;;;;;;;;;;;;;-142.75;100.00;75912.88;5014334;28;19913;-70
2023/03/23 01:48:48;;;;;;;;;;;;;;;-142.75;100.00;75895.16;5012968;28;19948;-69
2023/03/23 01:51:15;;;;;;;;;;;;;;;-142.75;100.00;75901.06;5012815;28;20392;-70
2023/03/23 01:53:51;;;;;;;;;;;;;;;-142.75;100.00;75895.16;5013882;28;19920;-69
2023/03/23 01:56:20;;;;;;;;;;;;;;;-142.75;100.00;75914.84;5014130;28;20341;-69
2023/03/23 01:58:45;;;;;;;;;;;;;;;-142.75;100.00;75901.06;5013852;28;19929;-69
2023/03/23 02:01:13;;;;;;;;;;;;;;;-142.75;100.00;75903.03;5013839;28;19918;-70
2023/03/23 02:03:41;;;;;;;;;;;;;;;-142.75;100.00;75895.16;5012580;28;19920;-69
2023/03/23 02:06:06;;;;;;;;;;;;;;;-142.75;100.00;75899.09;5013851;28;19968;-69
2023/03/23 02:08:32;;;;;;;;;;;;;;;-142.75;100.00;75901.06;5013708;28;19913;-70
2023/03/23 02:10:58;;;;;;;;;;;;;;;-142.75;100.00;75908.94;5013751;28;19913;-70
2023/03/23 02:13:24;;;;;;;;;;;;;;;-142.75;100.00;75903.03;5013685;28;19913;-70
2023/03/23 02:15:49;;;;;;;;;;;;;;;-142.75;100.00;75910.91;5012796;28;20343;-69
2023/03/23 02:18:29;;;;;;;;;;;;;;;-142.75;100.00;75930.59;5013661;28;19913;-68
2023/03/23 02:21:13;;;;;;;;;;;;;;;-142.75;100.00;75914.84;5013439;28;19917;-69
2023/03/23 02:23:47;;;;;;;;;;;;;;;-142.75;100.00;75905.00;5012115;28;19921;-69
2023/03/23 02:26:12;;;;;;;;;;;;;;;-142.75;100.00;75912.88;5013594;28;19964;-69
2023/03/23 02:28:38;;;;;;;;;;;;;;;-142.75;100.00;75906.97;5013458;28;20314;-69
2023/03/23 02:31:13;;;;;;;;;;;;;;;-142.75;100.00;75905.00;5013459;28;19917;-70
2023/03/23 02:33:42;;;;;;;;;;;;;;;-142.75;100.00;75897.13;5013288;28;20415;-69
2023/03/23 02:36:07;;;;;;;;;;;;;;;-142.75;100.00;75891.22;5013460;28;19917;-69
2023/03/23 02:38:35;;;;;;;;;;;;;;;-142.75;100.00;75897.13;5011937;28;20012;-69
2023/03/23 02:41:02;;;;;;;;;;;;;;;-142.75;100.00;75899.09;5013151;28;19925;-69
2023/03/23 02:43:28;;;;;;;;;;;;;;;-142.75;100.00;75891.22;5011857;28;19914;-69
2023/03/23 02:45:55;;;;;;;;;;;;;;;-142.75;100.00;75897.13;5023709;28;19917;-70
2023/03/23 02:48:23;;;;;;;;;;;;;;;-142.75;100.00;75885.31;5032847;28;19920;-70
2023/03/23 02:50:51;;;;;;;;;;;;;;;-142.75;100.00;75887.28;5031212;28;19913;-70
2023/03/23 02:53:18;;;;;;;;;;;;;;;-142.75;100.00;75908.94;5032516;28;19913;-68
2023/03/23 02:55:44;;;;;;;;;;;;;;;-142.75;100.00;75885.31;5030702;28;19913;-68
2023/03/23 02:58:10;;;;;;;;;;;;;;;-142.75;100.00;75887.28;5032541;28;19983;-69
2023/03/23 03:00:36;;;;;;;;;;;;;;;-142.75;100.00;75883.34;5032623;28;19992;-69
2023/03/23 03:03:03;;;;;;;;;;;;;;;-142.75;100.00;75897.13;5031197;28;19970;-67
2023/03/23 03:05:38;;;;;;;;;;;;;;;-142.75;100.00;75891.22;5032521;28;19914;-69
2023/03/23 03:08:21;;;;;;;;;;;;;;;-142.75;100.00;75895.16;5032497;28;19920;-69
2023/03/23 03:10:50;;;;;;;;;;;;;;;-142.75;100.00;75873.50;5032368;28;19913;-69
2023/03/23 03:13:22;;;;;;;;;;;;;;;-142.75;100.00;75869.56;5032381;28;19940;-70
2023/03/23 03:15:57;;;;;;;;;;;;;;;-142.75;100.00;75875.47;5032462;28;19920;-69
2023/03/23 03:18:27;;;;;;;;;;;;;;;-142.75;100.00;75889.25;5032362;28;19917;-70
2023/03/23 03:20:54;;;;;;;;;;;;;;;-142.75;100.00;75887.28;5032208;28;19920;-70
2023/03/23 03:23:21;;;;;;;;;;;;;;;-142.75;100.00;75865.63;5032190;28;19913;-70
2023/03/23 03:25:49;;;;;;;;;;;;;;;-142.75;100.00;75887.28;5032333;28;19913;-69
2023/03/23 03:28:16;;;;;;;;;;;;;;;-142.75;100.00;75879.41;5032182;28;19944;-70
2023/03/23 03:30:43;;;;;;;;;;;;;;;-142.75;100.00;75889.25;5030865;28;19927;-69
2023/03/23 03:33:11;;;;;;;;;;;;;;;-142.75;100.00;75910.91;5031429;28;19914;-67
2023/03/23 03:35:37;;;;;;;;;;;;;;;-142.75;100.00;75877.44;5032191;28;19935;-71
2023/03/23 03:38:07;;;;;;;;;;;;;;;-142.75;100.00;75877.44;5030740;28;19921;-71
2023/03/23 03:40:33;;;;;;;;;;;;;;;-142.75;100.00;75885.31;5032060;28;19910;-71
2023/03/23 03:42:58;;;;;;;;;;;;;;;-142.75;100.00;75889.25;5032105;28;20411;-69
2023/03/23 03:45:23;;;;;;;;;;;;;;;-142.75;100.00;75893.19;5032012;28;20380;-70
2023/03/23 03:47:48;;;;;;;;;;;;;;;-142.75;100.00;75885.31;5030746;28;20032;-69
2023/03/23 03:50:13;;;;;;;;;;;;;;;-142.75;100.00;75891.22;5031963;28;20404;-70
2023/03/23 03:52:40;;;;;;;;;;;;;;;-142.75;100.00;75891.22;5031870;28;19913;-73
2023/03/23 03:55:06;;;;;;;;;;;;;;;-142.75;100.00;75903.03;5031870;28;19924;-71
2023/03/23 03:57:32;;;;;;;;;;;;;;;-142.75;100.00;75906.97;5031914;28;19935;-70
2023/03/23 03:59:57;;;;;;;;;;;;;;;-142.75;100.00;75918.78;5031916;28;20436;-71
2023/03/23 04:02:22;;;;;;;;;;;;;;;-142.75;100.00;75897.13;5031773;28;19954;-70
2023/03/23 04:04:48;;;;;;;;;;;;;;;-142.75;100.00;75908.94;5030427;28;19917;-73
2023/03/23 04:07:17;;;;;;;;;;;;;;;-142.75;100.00;75920.75;5034437;28;19920;-70
2023/03/23 04:09:43;;;;;;;;;;;;;;;-142.75;100.00;75918.78;5035900;28;19968;-70
2023/03/23 04:12:08;;;;;;;;;;;;;;;-142.75;100.00;75912.88;5035790;28;19940;-72
2023/03/23 04:14:33;;;;;;;;;;;;;;;-142.75;100.00;75928.63;5034391;28;19913;-69
2023/03/23 04:16:59;;;;;;;;;;;;;;;-142.75;100.00;75916.81;5035610;28;19914;-70
2023/03/23 04:19:24;;;;;;;;;;;;;;;-142.75;100.00;75916.81;5035663;28;19917;-70
2023/03/23 04:21:50;;;;;;;;;;;;;;;-142.75;100.00;75936.50;5035487;28;20293;-69
2023/03/23 04:24:15;;;;;;;;;;;;;;;-142.75;100.00;75930.59;5035519;28;19913;-71
2023/03/23 04:26:41;;;;;;;;;;;;;;;-142.75;100.00;75936.50;5034376;28;20033;-73
2023/03/23 04:29:07;;;;;;;;;;;;;;;-142.75;100.00;75938.47;5034189;28;19917;-69
2023/03/23 04:31:32;;;;;;;;;;;;;;;-142.75;100.00;75964.03;5035450;28;20273;-69
2023/03/23 04:33:59;;;;;;;;;;;;;;;-142.75;100.00;75958.16;5035259;28;19919;-70
2023/03/23 04:36:25;;;;;;;;;;;;;;;-142.75;100.00;75956.19;5035372;28;19921;-70
2023/03/23 04:38:50;;;;;;;;;;;;;;;-142.75;100.00;75950.28;5035232;28;19913;-70
2023/03/23 04:41:15;;;;;;;;;;;;;;;-142.75;100.00;75977.81;5035097;28;19963;-68
2023/03/23 04:43:44;;;;;;;;;;;;;;;-142.75;100.00;75975.84;5035140;28;19917;-70
2023/03/23 04:46:09;;;;;;;;;;;;;;;-142.75;100.00;75956.19;5033976;28;19913;-70
2023/03/23 04:48:35;;;;;;;;;;;;;;;-142.75;100.00;75971.91;5035086;28;19921;-71
2023/03/23 04:51:03;;;;;;;;;;;;;;;-142.75;100.00;75969.94;5034936;28;19917;-69
2023/03/23 04:53:29;;;;;;;;;;;;;;;-142.75;100.00;75971.91;5035044;28;19951;-73
2023/03/23 04:55:55;;;;;;;;;;;;;;;-142.75;100.00;75971.91;5035022;28;20245;-73
2023/03/23 04:58:20;;;;;;;;;;;;;;;-142.75;100.00;75975.84;5033497;28;19923;-70
2023/03/23 05:00:49;;;;;;;;;;;;;;;-142.75;100.00;75975.84;5034828;28;19913;-70
2023/03/23 05:03:16;;;;;;;;;;;;;;;-142.75;100.00;75967.97;5034777;28;19917;-69
2023/03/23 05:05:41;;;;;;;;;;;;;;;-142.75;100.00;75975.84;5034807;28;19918;-69
2023/03/23 05:08:06;;;;;;;;;;;;;;;-142.75;100.00;75962.09;5034788;28;19935;-69
2023/03/23 05:10:32;;;;;;;;;;;;;;;-142.75;100.00;75962.09;5034581;28;19971;-70
2023/03/23 05:12:57;;;;;;;;;;;;;;;-142.75;100.00;75966.00;5034762;28;19913;-70
2023/03/23 05:15:22;;;;;;;;;;;;;;;-142.75;100.00;75948.31;5034562;28;19913;-70
2023/03/23 05:17:48;;;;;;;;;;;;;;;-142.75;100.00;75956.19;5032389;28;19979;-70
2023/03/23 05:20:14;;;;;;;;;;;;;;;-142.75;100.00;75967.97;5033320;28;19924;-70
2023/03/23 05:22:40;;;;;;;;;;;;;;;-142.75;100.00;75962.09;5034410;28;20316;-70
2023/03/23 05:25:08;;;;;;;;;;;;;;;-142.75;100.00;75962.09;5034427;28;19913;-70
2023/03/23 05:27:34;;;;;;;;;;;;;;;-142.75;100.00;75962.09;5034387;28;19917;-70
2023/03/23 05:30:00;;;;;;;;;;;;;;;-142.75;100.00;75940.44;5034325;28;19913;-69
2023/03/23 05:32:29;;;;;;;;;;;;;;;-142.75;100.00;75948.31;5034283;28;20300;-69
2023/03/23 05:34:57;;;;;;;;;;;;;;;-142.75;100.00;75948.31;5034179;28;19913;-69
2023/03/23 05:37:23;;;;;;;;;;;;;;;-142.75;100.00;75956.19;5034354;28;19913;-69
2023/03/23 05:39:48;;;;;;;;;;;;;;;-142.75;100.00;75977.81;5034315;28;19935;-69
2023/03/23 05:42:13;;;;;;;;;;;;;;;-142.75;100.00;75964.03;5034136;28;20407;-69
2023/03/23 05:44:39;;;;;;;;;;;;;;;-142.75;100.00;75944.38;5034152;28;19959;-69
2023/03/23 05:47:04;;;;;;;;;;;;;;;-142.75;100.00;75948.31;5032829;28;19979;-68
2023/03/23 05:49:30;;;;;;;;;;;;;;;-142.75;100.00;75948.31;5032854;28;20395;-71
2023/03/23 05:51:55;;;;;;;;;;;;;;;-142.75;100.00;75967.97;5033856;28;20385;-69
2023/03/23 05:54:20;;;;;;;;;;;;;;;-142.75;100.00;75952.25;5032496;28;19913;-69
2023/03/23 05:56:46;;;;;;;;;;;;;;;-142.75;100.00;75964.03;5033989;28;19921;-69
2023/03/23 05:59:11;;;;;;;;;;;;;;;-142.75;100.00;75971.91;5032482;28;19917;-68
2023/03/23 06:01:37;;;;;;;;;;;;;;;-142.75;100.00;75977.81;5032346;28;19917;-68
2023/03/23 06:04:03;;;;;;;;;;;;;;;-142.75;100.00;75989.63;5033685;28;19967;-71
2023/03/23 06:06:29;;;;;;;;;;;;;;;-142.75;100.00;75981.75;5033749;28;20381;-68
2023/03/23 06:08:54;;;;;;;;;;;;;;;-142.75;100.00;75979.78;5033642;28;20386;-69
2023/03/23 06:11:20;;;;;;;;;;;;;;;-142.75;100.00;75991.59;5033643;28;20007;-68
2023/03/23 06:13:45;;;;;;;;;;;;;;;-142.75;100.00;75983.72;5032170;28;20300;-71
2023/03/23 06:16:10;;;;;;;;;;;;;;;-142.75;100.00;75997.50;5033520;28;19929;-68
2023/03/23 06:18:36;;;;;;;;;;;;;;;-142.75;100.00;76003.41;5033528;28;19920;-68
2023/03/23 06:21:02;;;;;;;;;;;;;;;-142.75;100.00;76019.16;5033308;28;19952;-71
2023/03/23 06:23:28;;;;;;;;;;;;;;;-142.75;100.00;76023.09;5033315;28;19913;-69
2023/03/23 06:25:54;;;;;;;;;;;;;;;-142.75;100.00;76027.03;5032107;28;19919;-71
2023/03/23 06:28:20;;;;;;;;;;;;;;;-142.75;100.00;76013.25;5033292;28;19918;-70
2023/03/23 06:30:45;;;;;;;;;;;;;;;-142.75;100.00;76015.22;5031745;28;19913;-69
2023/03/23 06:33:10;;;;;;;;;;;;;;;-142.75;100.00;76019.16;5033164;28;19921;-68
2023/03/23 06:35:36;;;;;;;;;;;;;;;-142.75;100.00;76032.94;5033338;28;19913;-68
2023/03/23 06:38:02;;;;;;;;;;;;;;;-142.75;100.00;76032.94;5033154;28;19959;-69
2023/03/23 06:40:28;;;;;;;;;;;;;;;-142.75;100.00;76030.97;5033142;28;19975;-69
2023/03/23 06:42:54;;;;;;;;;;;;;;;-142.75;100.00;76023.09;5032928;28;19921;-68
2023/03/23 06:45:19;;;;;;;;;;;;;;;-142.75;100.00;76015.22;5031635;28;19913;-69
2023/03/23 06:47:45;;;;;;;;;;;;;;;-142.75;100.00;76017.19;5031556;28;20011;-69
2023/03/23 06:50:10;;;;;;;;;;;;;;;-142.75;100.00;76015.22;5032902;28;20296;-68
2023/03/23 06:52:35;;;;;;;;;;;;;;;-142.75;100.00;76023.09;5032507;28;20384;-70
2023/03/23 06:55:01;;;;;;;;;;;;;;;-142.75;100.00;76021.13;5031274;28;20447;-69
2023/03/23 06:57:26;;;;;;;;;;;;;;;-142.75;100.00;76013.25;5031490;28;20446;-68
2023/03/23 06:59:51;;;;;;;;;;;;;;;-142.75;100.00;76023.09;5032647;28;19978;-68
2023/03/23 07:02:17;;;;;;;;;;;;;;;-142.75;100.00;76025.06;5032337;28;20396;-69
2023/03/23 07:04:42;;;;;;;;;;;;;;;-142.75;100.00;76023.09;5032494;28;19920;-71
2023/03/23 07:07:08;;;;;;;;;;;;;;;-142.75;100.00;76027.03;5031162;28;20015;-68
2023/03/23 07:09:33;;;;;;;;;;;;;;;-142.75;100.00;76023.09;5032534;28;19913;-69
2023/03/23 07:11:59;;;;;;;;;;;;;;;-142.75;100.00;76021.13;5031124;28;19913;-69
2023/03/23 07:14:24;;;;;;;;;;;;;;;-142.75;100.00;76019.16;5031149;28;19917;-68
2023/03/23 07:16:49;;;;;;;;;;;;;;;-142.75;100.00;76025.06;5031200;28;19913;-69
2023/03/23 07:19:15;;;;;;;;;;;;;;;-142.75;100.00;76025.06;5024382;28;20368;-71
2023/03/23 07:21:40;;;;;;;;;;;;;;;-142.75;100.00;76032.94;5012604;28;19925;-68
2023/03/23 07:24:06;;;;;;;;;;;;;;;-142.75;100.00;76034.91;5012512;28;19921;-69
2023/03/23 07:26:31;;;;;;;;;;;;;;;-142.75;100.00;76025.06;5012679;28;20055;-68
2023/03/23 07:28:56;;;;;;;;;;;;;;;-142.75;100.00;76003.41;5012266;28;19913;-67
2023/03/23 07:31:22;;;;;;;;;;;;;;;-142.75;100.00;75993.56;5012144;28;20304;-68
2023/03/23 07:33:47;;;;;;;;;;;;;;;-142.75;100.00;76015.22;5012228;28;20373;-71
2023/03/23 07:36:13;;;;;;;;;;;;;;;-142.75;100.00;76007.34;5012372;28;19913;-67
2023/03/23 07:38:38;;;;;;;;;;;;;;;-142.75;100.00;76009.31;5031131;28;19967;-69
2023/03/23 07:41:04;;;;;;;;;;;;;;;-142.75;100.00;76017.19;5030821;28;19917;-68
2023/03/23 07:43:30;;;;;;;;;;;;;;;-142.75;100.00;75995.53;5017253;28;20282;-68
2023/03/23 07:45:55;;;;;;;;;;;;;;;-142.75;100.00;75966.00;5011809;28;19960;-68
2023/03/23 07:48:20;;;;;;;;;;;;;;;-142.75;100.00;75991.59;5020012;28;19917;-68
2023/03/23 07:50:46;;;;;;;;;;;;;;;-142.75;100.00;75975.84;5025108;28;19916;-69
2023/03/23 07:53:11;;;;;;;;;;;;;;;-142.75;100.00;75964.03;5026974;28;20266;-68
2023/03/23 07:55:37;;;;;;;;;;;;;;;-142.75;100.00;75967.97;5030764;28;19917;-67
2023/03/23 07:58:02;;;;;;;;;;;;;;;-142.75;100.00;75999.47;5030831;28;19917;-67
2023/03/23 08:00:28;;;;;;;;;;;;;;;-142.75;100.00;75991.59;5026884;28;20451;-68
2023/03/23 08:02:58;;;;;;;;;;;;;;;-142.75;100.00;75997.50;5028488;28;19918;-70
2023/03/23 08:05:25;;;;;;;;;;;;;;;-142.75;100.00;75997.50;5029746;28;20434;-68
2023/03/23 08:07:51;;;;;;;;;;;;;;;-142.75;100.00;76025.06;5031197;28;19921;-66
2023/03/23 08:10:17;;;;;;;;;;;;;;;-142.75;100.00;76003.41;5031136;28;19924;-65
2023/03/23 08:12:43;;;;;;;;;;;;;;;-142.75;100.00;75950.28;5031266;28;19913;-67
2023/03/23 08:15:12;;;;;;;;;;;;;;;-142.75;100.00;75885.31;5030923;28;19932;-67
2023/03/23 08:17:38;;;;;;;;;;;;;;;-142.75;100.00;75849.91;5023040;28;20416;-69
2023/03/23 08:20:10;;;;;;;;;;;;;;;-142.75;100.00;75814.47;5037454;28;19919;-68
2023/03/23 08:22:36;;;;;;;;;;;;;;;-142.75;100.00;75859.72;5034549;28;20380;-66
2023/03/23 08:25:03;;;;;;;;;;;;;;;-142.75;100.00;75855.81;5041299;28;19940;-68
2023/03/23 08:27:28;;;;;;;;;;;;;;;-142.75;100.00;75830.22;5038461;28;20316;-68
2023/03/23 08:29:54;;;;;;;;;;;;;;;-142.75;100.00;75845.97;5042901;28;19940;-68
2023/03/23 08:32:19;;;;;;;;;;;;;;;-142.75;100.00;75863.66;5051247;28;19912;-69
2023/03/23 08:34:44;;;;;;;;;;;;;;;-142.75;100.00;75895.16;5050114;28;19917;-67
2023/03/23 08:37:09;;;;;;;;;;;;;;;-142.75;100.00;75967.97;5032651;28;19917;-68
2023/03/23 08:39:35;;;;;;;;;;;;;;;-142.75;100.00;75930.59;5030327;28;19916;-68
2023/03/23 08:42:00;;;;;;;;;;;;;;;-142.75;100.00;75905.00;5032525;28;20416;-68
2023/03/23 08:44:25;;;;;;;;;;;;;;;-142.75;100.00;75881.38;5035923;28;20058;-67
2023/03/23 08:46:56;;;;;;;;;;;;;;;-142.75;100.00;75885.31;5039929;28;19920;-68
2023/03/23 08:49:21;;;;;;;;;;;;;;;-142.75;100.00;75930.59;5040783;28;19971;-68
2023/03/23 08:51:47;;;;;;;;;;;;;;;-142.75;100.00;75897.13;5040295;28;19979;-68
2023/03/23 08:54:13;;;;;;;;;;;;;;;-142.75;100.00;75806.59;5042994;28;20062;-66
2023/03/23 08:56:38;;;;;;;;;;;;;;;-142.75;100.00;75867.59;5045492;28;20019;-67
2023/03/23 08:59:03;;;;;;;;;;;;;;;-142.75;100.00;75824.31;5042696;28;19920;-67
2023/03/23 09:01:28;;;;;;;;;;;;;;;-142.75;100.00;75792.81;5035993;28;19975;-68
2023/03/23 09:03:54;;;;;;;;;;;;;;;-142.75;100.00;75830.22;5038767;28;20320;-66
2023/03/23 09:06:19;;;;;;;;;;;;;;;-142.75;100.00;75828.25;5033583;28;19920;-65
2023/03/23 09:08:45;;;;;;;;;;;;;;;-142.75;100.00;75840.06;5038012;28;19930;-66
2023/03/23 09:11:10;;;;;;;;;;;;;;;-142.75;100.00;75782.97;5046978;28;20376;-67
2023/03/23 09:13:36;;;;;;;;;;;;;;;-142.75;100.00;75840.06;5039417;28;20381;-69
2023/03/23 09:16:03;;;;;;;;;;;;;;;-142.75;100.00;75840.06;5029558;28;20000;-67
2023/03/23 09:18:29;;;;;;;;;;;;;;;-142.75;100.00;75910.91;5030981;28;19955;-69
2023/03/23 09:20:54;;;;;;;;;;;;;;;-142.75;100.00;75932.56;5027656;28;19917;-66
2023/03/23 09:23:20;;;;;;;;;;;;;;;-142.75;100.00;75887.28;5024570;28;19921;-69
2023/03/23 09:25:46;;;;;;;;;;;;;;;-142.75;100.00;75901.06;5035437;28;19909;-68
2023/03/23 09:28:11;;;;;;;;;;;;;;;-142.75;100.00;75942.41;5041704;28;19978;-69
2023/03/23 09:30:37;;;;;;;;;;;;;;;-142.75;100.00;75956.19;5040212;28;19913;-69
2023/03/23 09:33:03;;;;;;;;;;;;;;;-142.75;100.00;75940.44;5034060;28;19917;-69
2023/03/23 09:35:29;;;;;;;;;;;;;;;-142.75;100.00;75938.47;5035074;28;19913;-68
2023/03/23 09:37:55;;;;;;;;;;;;;;;-142.75;100.00;75940.44;5034133;28;19924;-71
2023/03/23 09:40:22;;;;;;;;;;;;;;;-142.75;100.00;75936.50;5045506;28;19917;-67
2023/03/23 09:43:06;;;;;;;;;;;;;;;-142.75;100.00;75979.78;5043182;28;19921;-68
2023/03/23 09:45:46;;;;;;;;;;;;;;;-142.75;100.00;75936.50;5034105;28;19917;-68
2023/03/23 09:48:17;;;;;;;;;;;;;;;-142.75;100.00;75903.03;5034023;28;20399;-66
2023/03/23 09:50:44;;;;;;;;;;;;;;;-142.75;100.00;75830.22;5051459;28;20390;-67
2023/03/23 09:53:14;;;;;;;;;;;;;;;-142.75;100.00;75851.88;5053773;28;19978;-68
2023/03/23 09:55:39;;;;;;;;;;;;;;;-142.75;100.00;75859.72;5053867;28;19917;-68
2023/03/23 09:58:16;;;;;;;;;;;;;;;-142.75;100.00;75771.16;5051941;28;19917;-69
2023/03/23 10:00:52;;;;;;;;;;;;;;;-142.75;100.00;75794.78;5053750;28;19913;-69
2023/03/23 10:03:19;;;;;;;;;;;;;;;-142.75;100.00;75782.97;5053459;28;19924;-69
2023/03/23 10:05:49;;;;;;;;;;;;;;;-142.75;100.00;75790.84;5053184;28;19913;-69
2023/03/23 10:08:25;;;;;;;;;;;;;;;-142.75;100.00;75855.81;5053508;28;19933;-71
2023/03/23 10:11:04;;;;;;;;;;;;;;;-142.75;100.00;75838.09;5053450;28;19967;-68
2023/03/23 10:13:32;;;;;;;;;;;;;;;-142.75;100.00;75879.41;5053372;28;20047;-70
2023/03/23 10:15:57;;;;;;;;;;;;;;;-142.75;100.00;75869.56;5053349;28;19913;-68
2023/03/23 10:18:22;;;;;;;;;;;;;;;-142.75;100.00;75834.16;5052178;28;20152;-69
2023/03/23 10:20:48;;;;;;;;;;;;;;;-142.75;100.00;75784.94;5051971;28;20355;-69
2023/03/23 10:23:41;;;;;;;;;;;;;;;-142.75;100.00;75861.69;5051904;28;19923;-69
2023/03/23 10:26:26;;;;;;;;;;;;;;;-142.75;100.00;75877.44;5053309;28;19913;-68
2023/03/23 10:28:56;;;;;;;;;;;;;;;-142.75;100.00;75763.28;5051832;28;19919;-69
2023/03/23 10:31:24;;;;;;;;;;;;;;;-142.75;100.00;75729.84;5053151;28;20375;-70
2023/03/23 10:33:50;;;;;;;;;;;;;;;-142.75;100.00;75676.69;5051720;28;20392;-69
2023/03/23 10:36:19;;;;;;;;;;;;;;;-142.75;100.00;75639.31;5048799;28;19920;-71
2023/03/23 10:39:14;;;;;;;;;;;;;;;-142.75;100.00;75657.03;5033046;28;19957;-69
2023/03/23 10:41:40;;;;;;;;;;;;;;;-142.75;100.00;75688.50;5028147;28;19917;-68
2023/03/23 10:44:17;;;;;;;;;;;;;;;-142.75;100.00;75684.56;5032881;28;20353;-68
2023/03/23 10:46:48;;;;;;;;;;;;;;;-142.75;100.00;75757.41;5031653;28;19913;-69
2023/03/23 10:49:18;;;;;;;;;;;;;;;-142.75;100.00;75786.91;5031532;28;19913;-69
2023/03/23 10:51:46;;;;;;;;;;;;;;;-142.75;100.00;75696.38;5032754;28;20399;-69
2023/03/23 10:54:11;;;;;;;;;;;;;;;-142.75;100.00;75647.19;5032644;28;19917;-69
2023/03/23 10:56:39;;;;;;;;;;;;;;;-142.75;100.00;75676.69;5032806;28;19913;-69
2023/03/23 10:59:22;;;;;;;;;;;;;;;-142.75;100.00;75682.59;5032629;28;19917;-69
2023/03/23 11:01:52;;;;;;;;;;;;;;;-142.75;100.00;75653.09;5032479;28;19917;-69
2023/03/23 11:04:19;;;;;;;;;;;;;;;-142.75;100.00;75712.13;5032564;28;19913;-69
2023/03/23 11:06:48;;;;;;;;;;;;;;;-142.75;100.00;75659.00;5032601;28;19921;-69
2023/03/23 11:09:17;;;;;;;;;;;;;;;-142.75;100.00;75716.06;5031254;28;19917;-68
2023/03/23 11:11:50;;;;;;;;;;;;;;;-142.75;100.00;75767.22;5031143;28;19919;-69
2023/03/23 11:14:18;;;;;;;;;;;;;;;-142.75;100.00;75802.66;5032325;28;19956;-69
2023/03/23 11:16:52;;;;;;;;;;;;;;;-142.75;100.00;75818.41;5031838;28;20003;-68
2023/03/23 11:19:36;;;;;;;;;;;;;;;-142.75;100.00;75887.28;5032168;28;19913;-69
2023/03/23 11:22:04;;;;;;;;;;;;;;;-142.75;100.00;75903.03;5030953;28;20351;-69
2023/03/23 11:24:33;;;;;;;;;;;;;;;-142.75;100.00;75905.00;5030944;28;19971;-68
2023/03/23 11:26:58;;;;;;;;;;;;;;;-142.75;100.00;75944.38;5032316;28;19921;-69
2023/03/23 11:29:28;;;;;;;;;;;;;;;-142.75;100.00;75966.00;5032191;28;20373;-69
2023/03/23 11:32:05;;;;;;;;;;;;;;;-142.75;100.00;75958.16;5032193;28;19913;-69
2023/03/23 11:34:35;;;;;;;;;;;;;;;-142.75;100.00;75966.00;5032215;28;20008;-69
2023/03/23 11:37:03;;;;;;;;;;;;;;;-142.75;100.00;75916.81;5032204;28;19921;-69
2023/03/23 11:39:31;;;;;;;;;;;;;;;-142.75;100.00;75826.28;5030722;28;19917;-69
2023/03/23 11:41:57;;;;;;;;;;;;;;;-142.75;100.00;75725.91;5031989;28;20039;-69
2023/03/23 11:44:23;;;;;;;;;;;;;;;-142.75;100.00;75704.25;5030777;28;19913;-68
2023/03/23 11:47:12;;;;;;;;;;;;;;;-142.75;100.00;75666.88;5030383;28;19913;-70
2023/03/23 11:49:42;;;;;;;;;;;;;;;-142.75;100.00;75716.06;5027734;28;20010;-69
2023/03/23 11:52:19;;;;;;;;;;;;;;;-142.75;100.00;75735.75;5030888;28;19913;-69
2023/03/23 11:54:48;;;;;;;;;;;;;;;-142.75;100.00;75721.97;5028350;28;19917;-67
2023/03/23 11:57:15;;;;;;;;;;;;;;;-142.75;100.00;75729.84;5030681;28;20010;-68
2023/03/23 11:59:41;;;;;;;;;;;;;;;-142.75;100.00;75731.81;5031868;28;19917;-69
2023/03/23 12:02:12;;;;;;;;;;;;;;;-142.75;100.00;75739.69;5031204;28;19948;-66
2023/03/23 12:04:56;;;;;;;;;;;;;;;-142.75;100.00;75660.97;5032148;28;20293;-69
2023/03/23 12:07:37;;;;;;;;;;;;;;;-142.75;100.00;75611.75;5031901;28;19913;-68
2023/03/23 12:10:22;;;;;;;;;;;;;;;-142.75;100.00;75544.84;5038542;28;20471;-68
2023/03/23 12:12:47;;;;;;;;;;;;;;;-142.75;100.00;75495.66;5037122;28;19967;-70
2023/03/23 12:15:19;;;;;;;;;;;;;;;-142.75;100.00;75507.47;5036761;28;19959;-69
2023/03/23 12:18:03;;;;;;;;;;;;;;;-142.75;100.00;75540.91;5030690;28;20274;-69
2023/03/23 12:20:44;;;;;;;;;;;;;;;-142.75;100.00;75601.91;5031772;28;19967;-69